This is the latest recevied weather packets stored in our database for station/object EW3591. If no packets are shown the sender has not sent any weather packets the latest 10 day(s).
| Time | Temp. | Humidity | Pressure | Rain* | Wind** | Luminosity | Snow |
|---|---|---|---|---|---|---|---|
| 1778183945 | 12.22° C | 57% | 1009.7 hPa | 0 mm | - | - | - |
| 1778183825 | 12.22° C | 56% | 1009.8 hPa | 0 mm | - | - | - |
| 1778183705 | 12.22° C | 57% | 1009.8 hPa | 0 mm | - | - | - |
| 1778183584 | 12.22° C | 57% | 1009.8 hPa | 0 mm | - | - | - |
| 1778183464 | 11.67° C | 58% | 1009.9 hPa | 0 mm | - | - | - |
| 1778183344 | 11.67° C | 57% | 1010 hPa | 0 mm | - | - | - |
| 1778183224 | 11.67° C | 59% | 1010 hPa | 0 mm | - | - | - |
| 1778183103 | 11.11° C | 60% | 1009.9 hPa | 0 mm | - | - | - |
| 1778182983 | 11.11° C | 62% | 1010 hPa | 0 mm | - | - | - |
| 1778182863 | 10.56° C | 67% | 1010 hPa | 0 mm | - | - | - |
| 1778182742 | 10° C | 66% | 1010.1 hPa | 0 mm | - | - | - |
| 1778182622 | 10° C | 65% | 1010.1 hPa | 0 mm | - | - | - |
| 1778182502 | 10° C | 64% | 1010.2 hPa | 0 mm | - | - | - |
| 1778182381 | 10.56° C | 64% | 1010.2 hPa | 0 mm | - | - | - |
| 1778182261 | 10.56° C | 63% | 1010.3 hPa | 0 mm | - | - | - |
| 1778182141 | 10.56° C | 63% | 1010.2 hPa | 0 mm | - | - | - |
| 1778182021 | 11.11° C | 60% | 1010.3 hPa | 0 mm | - | - | - |
| 1778181900 | 11.11° C | 59% | 1010.4 hPa | 0 mm | - | - | - |
| 1778181780 | 11.67° C | 58% | 1010.3 hPa | 0 mm | - | - | - |
| 1778181660 | 11.67° C | 57% | 1010.3 hPa | 0 mm | - | - | - |
| 1778181539 | 11.67° C | 57% | 1010.3 hPa | 0 mm | - | - | - |
| 1778181419 | 11.67° C | 56% | 1010.3 hPa | 0 mm | - | - | - |
| 1778181299 | 11.67° C | 56% | 1010.3 hPa | 0 mm | - | - | - |
| 1778181179 | 12.22° C | 55% | 1010.3 hPa | 0 mm | - | - | - |
| 1778181058 | 12.22° C | 56% | 1010.2 hPa | 0 mm | - | - | - |
* Rain latest hour (hover to see other rain measurements)
** Current wind speed in m/s (hover to see current wind gust speed)